sensor_id;sensor_type;location;lat;lon;timestamp;P1;durP1;ratioP1;P2;durP2;ratioP2
72358;SDS011;60317;48.880;-0.862;2023-05-29T00:02:03;14.50;;;5.63;;
72358;SDS011;60317;48.880;-0.862;2023-05-29T00:04:29;10.98;;;4.60;;
72358;SDS011;60317;48.880;-0.862;2023-05-29T00:06:56;12.38;;;4.85;;
72358;SDS011;60317;48.880;-0.862;2023-05-29T00:09:22;14.18;;;5.32;;
72358;SDS011;60317;48.880;-0.862;2023-05-29T00:11:50;12.18;;;5.40;;
72358;SDS011;60317;48.880;-0.862;2023-05-29T00:14:17;14.60;;;5.13;;
72358;SDS011;60317;48.880;-0.862;2023-05-29T00:16:43;13.23;;;5.38;;
72358;SDS011;60317;48.880;-0.862;2023-05-29T00:19:10;13.02;;;5.28;;
72358;SDS011;60317;48.880;-0.862;2023-05-29T00:21:37;12.43;;;5.18;;
72358;SDS011;60317;48.880;-0.862;2023-05-29T00:24:04;12.55;;;5.28;;
72358;SDS011;60317;48.880;-0.862;2023-05-29T00:26:30;11.40;;;5.10;;
72358;SDS011;60317;48.880;-0.862;2023-05-29T00:28:58;12.23;;;4.90;;
72358;SDS011;60317;48.880;-0.862;2023-05-29T00:31:25;12.60;;;4.90;;
72358;SDS011;60317;48.880;-0.862;2023-05-29T00:33:51;11.30;;;4.57;;
72358;SDS011;60317;48.880;-0.862;2023-05-29T00:36:18;11.88;;;4.90;;
72358;SDS011;60317;48.880;-0.862;2023-05-29T00:38:44;9.02;;;4.45;;
72358;SDS011;60317;48.880;-0.862;2023-05-29T00:41:13;12.57;;;4.45;;
72358;SDS011;60317;48.880;-0.862;2023-05-29T00:43:40;9.30;;;4.60;;
72358;SDS011;60317;48.880;-0.862;2023-05-29T00:46:08;11.77;;;4.55;;
72358;SDS011;60317;48.880;-0.862;2023-05-29T00:48:35;14.30;;;5.32;;
72358;SDS011;60317;48.880;-0.862;2023-05-29T00:51:02;9.75;;;4.20;;
72358;SDS011;60317;48.880;-0.862;2023-05-29T00:53:29;13.00;;;4.95;;
72358;SDS011;60317;48.880;-0.862;2023-05-29T00:55:55;10.23;;;4.47;;
72358;SDS011;60317;48.880;-0.862;2023-05-29T00:58:23;12.10;;;4.82;;
72358;SDS011;60317;48.880;-0.862;2023-05-29T01:00:49;13.13;;;5.05;;
72358;SDS011;60317;48.880;-0.862;2023-05-29T01:03:17;11.48;;;4.85;;
72358;SDS011;60317;48.880;-0.862;2023-05-29T01:05:44;10.02;;;4.53;;
72358;SDS011;60317;48.880;-0.862;2023-05-29T01:08:11;12.98;;;4.82;;
72358;SDS011;60317;48.880;-0.862;2023-05-29T01:10:38;13.98;;;4.75;;
72358;SDS011;60317;48.880;-0.862;2023-05-29T01:13:06;11.70;;;4.70;;
72358;SDS011;60317;48.880;-0.862;2023-05-29T01:15:37;10.40;;;4.55;;
72358;SDS011;60317;48.880;-0.862;2023-05-29T01:18:13;12.35;;;4.68;;
72358;SDS011;60317;48.880;-0.862;2023-05-29T01:20:50;12.82;;;4.93;;
72358;SDS011;60317;48.880;-0.862;2023-05-29T01:23:34;10.98;;;4.53;;
72358;SDS011;60317;48.880;-0.862;2023-05-29T01:26:20;10.40;;;4.50;;
72358;SDS011;60317;48.880;-0.862;2023-05-29T01:28:51;10.45;;;4.47;;
72358;SDS011;60317;48.880;-0.862;2023-05-29T01:31:20;8.45;;;4.03;;
72358;SDS011;60317;48.880;-0.862;2023-05-29T01:33:51;12.57;;;4.30;;
72358;SDS011;60317;48.880;-0.862;2023-05-29T01:36:18;12.07;;;4.70;;
72358;SDS011;60317;48.880;-0.862;2023-05-29T01:38:45;13.00;;;4.32;;
72358;SDS011;60317;48.880;-0.862;2023-05-29T01:41:12;10.30;;;4.47;;
72358;SDS011;60317;48.880;-0.862;2023-05-29T01:43:40;13.13;;;4.70;;
72358;SDS011;60317;48.880;-0.862;2023-05-29T01:46:08;11.60;;;4.53;;
72358;SDS011;60317;48.880;-0.862;2023-05-29T01:48:35;12.68;;;4.85;;
72358;SDS011;60317;48.880;-0.862;2023-05-29T01:51:02;10.32;;;4.47;;
72358;SDS011;60317;48.880;-0.862;2023-05-29T01:53:28;12.65;;;3.90;;
72358;SDS011;60317;48.880;-0.862;2023-05-29T01:55:55;13.88;;;4.28;;
72358;SDS011;60317;48.880;-0.862;2023-05-29T01:58:21;10.98;;;4.00;;
72358;SDS011;60317;48.880;-0.862;2023-05-29T02:00:49;8.95;;;3.97;;
72358;SDS011;60317;48.880;-0.862;2023-05-29T02:03:17;11.20;;;4.40;;
72358;SDS011;60317;48.880;-0.862;2023-05-29T02:05:44;9.15;;;3.88;;
72358;SDS011;60317;48.880;-0.862;2023-05-29T02:08:10;11.23;;;4.25;;
72358;SDS011;60317;48.880;-0.862;2023-05-29T02:10:37;9.63;;;3.90;;
72358;SDS011;60317;48.880;-0.862;2023-05-29T02:13:03;9.85;;;4.13;;
72358;SDS011;60317;48.880;-0.862;2023-05-29T02:15:30;12.57;;;4.40;;
72358;SDS011;60317;48.880;-0.862;2023-05-29T02:17:56;12.05;;;4.03;;
72358;SDS011;60317;48.880;-0.862;2023-05-29T02:20:24;11.38;;;3.90;;
72358;SDS011;60317;48.880;-0.862;2023-05-29T02:22:51;12.02;;;4.13;;
72358;SDS011;60317;48.880;-0.862;2023-05-29T02:25:17;9.93;;;3.63;;
72358;SDS011;60317;48.880;-0.862;2023-05-29T02:27:44;10.68;;;4.00;;
72358;SDS011;60317;48.880;-0.862;2023-05-29T02:30:10;10.90;;;3.92;;
72358;SDS011;60317;48.880;-0.862;2023-05-29T02:32:37;9.35;;;3.33;;
72358;SDS011;60317;48.880;-0.862;2023-05-29T02:35:05;11.00;;;3.78;;
72358;SDS011;60317;48.880;-0.862;2023-05-29T02:37:33;10.13;;;3.72;;
72358;SDS011;60317;48.880;-0.862;2023-05-29T02:39:59;10.05;;;3.90;;
72358;SDS011;60317;48.880;-0.862;2023-05-29T02:42:26;9.38;;;3.70;;
72358;SDS011;60317;48.880;-0.862;2023-05-29T02:44:52;9.88;;;3.80;;
72358;SDS011;60317;48.880;-0.862;2023-05-29T02:47:19;12.10;;;3.97;;
72358;SDS011;60317;48.880;-0.862;2023-05-29T02:49:45;8.82;;;3.50;;
72358;SDS011;60317;48.880;-0.862;2023-05-29T02:52:12;14.90;;;3.65;;
72358;SDS011;60317;48.880;-0.862;2023-05-29T02:54:39;10.90;;;3.55;;
72358;SDS011;60317;48.880;-0.862;2023-05-29T02:57:06;8.60;;;3.95;;
72358;SDS011;60317;48.880;-0.862;2023-05-29T02:59:32;11.40;;;3.75;;
72358;SDS011;60317;48.880;-0.862;2023-05-29T03:01:59;9.30;;;3.70;;
72358;SDS011;60317;48.880;-0.862;2023-05-29T03:04:26;12.43;;;4.10;;
72358;SDS011;60317;48.880;-0.862;2023-05-29T03:06:53;13.30;;;3.83;;
72358;SDS011;60317;48.880;-0.862;2023-05-29T03:09:19;9.80;;;4.05;;
72358;SDS011;60317;48.880;-0.862;2023-05-29T03:11:47;10.60;;;4.25;;
72358;SDS011;60317;48.880;-0.862;2023-05-29T03:14:14;12.68;;;4.07;;
72358;SDS011;60317;48.880;-0.862;2023-05-29T03:16:40;15.60;;;4.28;;
72358;SDS011;60317;48.880;-0.862;2023-05-29T03:19:07;11.43;;;4.47;;
72358;SDS011;60317;48.880;-0.862;2023-05-29T03:21:33;12.85;;;4.47;;
72358;SDS011;60317;48.880;-0.862;2023-05-29T03:24:00;12.80;;;4.40;;
72358;SDS011;60317;48.880;-0.862;2023-05-29T03:26:26;14.95;;;4.32;;
72358;SDS011;60317;48.880;-0.862;2023-05-29T03:28:54;12.02;;;4.35;;
72358;SDS011;60317;48.880;-0.862;2023-05-29T03:31:21;12.68;;;4.25;;
72358;SDS011;60317;48.880;-0.862;2023-05-29T03:33:47;14.88;;;4.20;;
72358;SDS011;60317;48.880;-0.862;2023-05-29T03:36:15;12.93;;;4.35;;
72358;SDS011;60317;48.880;-0.862;2023-05-29T03:38:42;14.05;;;4.43;;
72358;SDS011;60317;48.880;-0.862;2023-05-29T03:41:08;13.43;;;3.80;;
72358;SDS011;60317;48.880;-0.862;2023-05-29T03:43:35;12.93;;;4.35;;
72358;SDS011;60317;48.880;-0.862;2023-05-29T03:46:03;12.65;;;4.07;;
72358;SDS011;60317;48.880;-0.862;2023-05-29T03:48:29;10.43;;;3.75;;
72358;SDS011;60317;48.880;-0.862;2023-05-29T03:50:56;10.75;;;4.20;;
72358;SDS011;60317;48.880;-0.862;2023-05-29T03:53:22;9.43;;;3.78;;
72358;SDS011;60317;48.880;-0.862;2023-05-29T03:55:49;9.65;;;4.15;;
72358;SDS011;60317;48.880;-0.862;2023-05-29T03:58:15;10.95;;;3.80;;
72358;SDS011;60317;48.880;-0.862;2023-05-29T04:00:42;12.75;;;3.90;;
72358;SDS011;60317;48.880;-0.862;2023-05-29T04:03:10;9.32;;;4.00;;
72358;SDS011;60317;48.880;-0.862;2023-05-29T04:05:37;12.38;;;4.15;;
72358;SDS011;60317;48.880;-0.862;2023-05-29T04:08:03;13.55;;;4.65;;
72358;SDS011;60317;48.880;-0.862;2023-05-29T04:10:41;13.23;;;4.13;;
72358;SDS011;60317;48.880;-0.862;2023-05-29T04:13:07;9.13;;;4.03;;
72358;SDS011;60317;48.880;-0.862;2023-05-29T04:15:34;12.55;;;4.38;;
72358;SDS011;60317;48.880;-0.862;2023-05-29T04:18:01;13.90;;;4.43;;
72358;SDS011;60317;48.880;-0.862;2023-05-29T04:20:29;10.32;;;3.75;;
72358;SDS011;60317;48.880;-0.862;2023-05-29T04:22:56;12.88;;;4.50;;
72358;SDS011;60317;48.880;-0.862;2023-05-29T04:25:23;14.25;;;4.35;;
72358;SDS011;60317;48.880;-0.862;2023-05-29T04:27:49;10.07;;;3.88;;
72358;SDS011;60317;48.880;-0.862;2023-05-29T04:30:15;11.05;;;3.83;;
72358;SDS011;60317;48.880;-0.862;2023-05-29T04:32:42;11.77;;;4.57;;
72358;SDS011;60317;48.880;-0.862;2023-05-29T04:35:09;12.82;;;4.30;;
72358;SDS011;60317;48.880;-0.862;2023-05-29T04:37:37;9.45;;;4.35;;
72358;SDS011;60317;48.880;-0.862;2023-05-29T04:40:04;13.75;;;4.60;;
72358;SDS011;60317;48.880;-0.862;2023-05-29T04:42:31;12.27;;;4.25;;
72358;SDS011;60317;48.880;-0.862;2023-05-29T04:44:57;11.18;;;4.10;;
72358;SDS011;60317;48.880;-0.862;2023-05-29T04:47:24;16.25;;;5.10;;
72358;SDS011;60317;48.880;-0.862;2023-05-29T04:49:50;12.32;;;4.50;;
72358;SDS011;60317;48.880;-0.862;2023-05-29T04:52:17;10.65;;;4.45;;
72358;SDS011;60317;48.880;-0.862;2023-05-29T04:54:44;13.10;;;4.95;;
72358;SDS011;60317;48.880;-0.862;2023-05-29T04:57:11;13.43;;;5.45;;
72358;SDS011;60317;48.880;-0.862;2023-05-29T04:59:37;12.65;;;5.18;;
72358;SDS011;60317;48.880;-0.862;2023-05-29T05:02:04;13.70;;;5.10;;
72358;SDS011;60317;48.880;-0.862;2023-05-29T05:04:31;13.77;;;4.97;;
72358;SDS011;60317;48.880;-0.862;2023-05-29T05:06:57;12.70;;;4.60;;
72358;SDS011;60317;48.880;-0.862;2023-05-29T05:09:24;15.82;;;5.22;;
72358;SDS011;60317;48.880;-0.862;2023-05-29T05:11:52;9.85;;;4.82;;
72358;SDS011;60317;48.880;-0.862;2023-05-29T05:14:18;10.25;;;4.50;;
72358;SDS011;60317;48.880;-0.862;2023-05-29T05:16:45;13.75;;;5.07;;
72358;SDS011;60317;48.880;-0.862;2023-05-29T05:19:11;13.95;;;5.53;;
72358;SDS011;60317;48.880;-0.862;2023-05-29T05:21:38;14.10;;;5.20;;
72358;SDS011;60317;48.880;-0.862;2023-05-29T05:24:04;11.00;;;4.90;;
72358;SDS011;60317;48.880;-0.862;2023-05-29T05:26:31;10.75;;;4.93;;
72358;SDS011;60317;48.880;-0.862;2023-05-29T05:28:59;13.45;;;4.82;;
72358;SDS011;60317;48.880;-0.862;2023-05-29T05:31:25;14.02;;;5.10;;
72358;SDS011;60317;48.880;-0.862;2023-05-29T05:33:52;12.82;;;5.30;;
72358;SDS011;60317;48.880;-0.862;2023-05-29T05:36:19;14.05;;;4.93;;
72358;SDS011;60317;48.880;-0.862;2023-05-29T05:38:45;11.98;;;5.22;;
72358;SDS011;60317;48.880;-0.862;2023-05-29T05:41:12;12.60;;;4.85;;
72358;SDS011;60317;48.880;-0.862;2023-05-29T05:43:38;14.50;;;5.13;;
72358;SDS011;60317;48.880;-0.862;2023-05-29T05:46:06;12.35;;;5.10;;
72358;SDS011;60317;48.880;-0.862;2023-05-29T05:48:33;15.15;;;5.55;;
72358;SDS011;60317;48.880;-0.862;2023-05-29T05:50:59;13.63;;;5.07;;
72358;SDS011;60317;48.880;-0.862;2023-05-29T05:53:26;12.18;;;5.15;;
72358;SDS011;60317;48.880;-0.862;2023-05-29T05:55:52;15.45;;;5.35;;
72358;SDS011;60317;48.880;-0.862;2023-05-29T05:58:19;11.20;;;5.03;;
72358;SDS011;60317;48.880;-0.862;2023-05-29T06:00:45;14.82;;;5.55;;
72358;SDS011;60317;48.880;-0.862;2023-05-29T06:03:13;12.32;;;5.22;;
72358;SDS011;60317;48.880;-0.862;2023-05-29T06:05:40;9.75;;;4.65;;
72358;SDS011;60317;48.880;-0.862;2023-05-29T06:08:06;13.55;;;4.88;;
72358;SDS011;60317;48.880;-0.862;2023-05-29T06:10:33;13.52;;;5.38;;
72358;SDS011;60317;48.880;-0.862;2023-05-29T06:13:00;13.43;;;5.55;;
72358;SDS011;60317;48.880;-0.862;2023-05-29T06:15:26;13.63;;;5.13;;
72358;SDS011;60317;48.880;-0.862;2023-05-29T06:17:53;16.02;;;5.35;;
72358;SDS011;60317;48.880;-0.862;2023-05-29T06:20:21;10.50;;;5.30;;
72358;SDS011;60317;48.880;-0.862;2023-05-29T06:22:47;14.07;;;5.35;;
72358;SDS011;60317;48.880;-0.862;2023-05-29T06:25:14;15.35;;;5.35;;
72358;SDS011;60317;48.880;-0.862;2023-05-29T06:27:40;12.35;;;5.93;;
72358;SDS011;60317;48.880;-0.862;2023-05-29T06:30:07;14.75;;;6.15;;
72358;SDS011;60317;48.880;-0.862;2023-05-29T06:32:34;12.38;;;5.45;;
72358;SDS011;60317;48.880;-0.862;2023-05-29T06:35:01;11.85;;;5.63;;
72358;SDS011;60317;48.880;-0.862;2023-05-29T06:37:29;15.18;;;5.78;;
72358;SDS011;60317;48.880;-0.862;2023-05-29T06:39:55;14.40;;;5.82;;
72358;SDS011;60317;48.880;-0.862;2023-05-29T06:42:22;14.68;;;5.95;;
72358;SDS011;60317;48.880;-0.862;2023-05-29T06:44:48;12.02;;;5.60;;
72358;SDS011;60317;48.880;-0.862;2023-05-29T06:47:15;14.70;;;5.70;;
72358;SDS011;60317;48.880;-0.862;2023-05-29T06:49:42;12.35;;;6.38;;
72358;SDS011;60317;48.880;-0.862;2023-05-29T06:52:08;13.45;;;5.93;;
72358;SDS011;60317;48.880;-0.862;2023-05-29T06:54:36;14.00;;;5.25;;
72358;SDS011;60317;48.880;-0.862;2023-05-29T06:57:02;10.13;;;5.72;;
72358;SDS011;60317;48.880;-0.862;2023-05-29T06:59:36;10.93;;;5.32;;
72358;SDS011;60317;48.880;-0.862;2023-05-29T07:02:03;14.77;;;5.82;;
72358;SDS011;60317;48.880;-0.862;2023-05-29T07:04:30;16.52;;;6.18;;
72358;SDS011;60317;48.880;-0.862;2023-05-29T07:06:56;13.07;;;5.55;;
72358;SDS011;60317;48.880;-0.862;2023-05-29T07:09:23;12.75;;;5.43;;
72358;SDS011;60317;48.880;-0.862;2023-05-29T07:11:50;14.48;;;5.90;;
72358;SDS011;60317;48.880;-0.862;2023-05-29T07:14:17;13.80;;;5.70;;
72358;SDS011;60317;48.880;-0.862;2023-05-29T07:16:44;14.68;;;5.40;;
72358;SDS011;60317;48.880;-0.862;2023-05-29T07:19:10;12.25;;;5.85;;
72358;SDS011;60317;48.880;-0.862;2023-05-29T07:21:47;14.77;;;5.60;;
72358;SDS011;60317;48.880;-0.862;2023-05-29T07:24:13;13.85;;;5.55;;
72358;SDS011;60317;48.880;-0.862;2023-05-29T07:26:40;15.60;;;5.72;;
72358;SDS011;60317;48.880;-0.862;2023-05-29T07:29:08;14.43;;;5.25;;
72358;SDS011;60317;48.880;-0.862;2023-05-29T07:31:34;10.60;;;5.07;;
72358;SDS011;60317;48.880;-0.862;2023-05-29T07:34:02;12.10;;;5.25;;
72358;SDS011;60317;48.880;-0.862;2023-05-29T07:36:29;14.98;;;4.90;;
72358;SDS011;60317;48.880;-0.862;2023-05-29T07:38:56;12.82;;;4.97;;
72358;SDS011;60317;48.880;-0.862;2023-05-29T07:41:22;10.98;;;5.10;;
72358;SDS011;60317;48.880;-0.862;2023-05-29T07:43:49;14.10;;;5.50;;
72358;SDS011;60317;48.880;-0.862;2023-05-29T07:46:17;12.85;;;4.97;;
72358;SDS011;60317;48.880;-0.862;2023-05-29T07:48:43;13.50;;;4.70;;
72358;SDS011;60317;48.880;-0.862;2023-05-29T07:51:10;11.07;;;4.85;;
72358;SDS011;60317;48.880;-0.862;2023-05-29T07:53:36;12.25;;;4.65;;
72358;SDS011;60317;48.880;-0.862;2023-05-29T07:56:03;13.38;;;4.80;;
72358;SDS011;60317;48.880;-0.862;2023-05-29T07:58:29;12.32;;;4.80;;
72358;SDS011;60317;48.880;-0.862;2023-05-29T08:00:56;10.48;;;4.50;;
72358;SDS011;60317;48.880;-0.862;2023-05-29T08:03:24;14.85;;;4.78;;
72358;SDS011;60317;48.880;-0.862;2023-05-29T08:05:51;18.02;;;4.78;;
72358;SDS011;60317;48.880;-0.862;2023-05-29T08:08:18;12.98;;;4.32;;
72358;SDS011;60317;48.880;-0.862;2023-05-29T08:10:44;11.20;;;4.30;;
72358;SDS011;60317;48.880;-0.862;2023-05-29T08:13:11;11.07;;;4.60;;
72358;SDS011;60317;48.880;-0.862;2023-05-29T08:15:37;12.15;;;4.82;;
72358;SDS011;60317;48.880;-0.862;2023-05-29T08:18:04;13.48;;;4.70;;
72358;SDS011;60317;48.880;-0.862;2023-05-29T08:20:32;11.73;;;4.50;;
72358;SDS011;60317;48.880;-0.862;2023-05-29T08:22:59;11.35;;;4.32;;
72358;SDS011;60317;48.880;-0.862;2023-05-29T08:25:25;13.48;;;4.60;;
72358;SDS011;60317;48.880;-0.862;2023-05-29T08:27:52;13.25;;;4.72;;
72358;SDS011;60317;48.880;-0.862;2023-05-29T08:30:18;10.93;;;4.63;;
72358;SDS011;60317;48.880;-0.862;2023-05-29T08:32:45;15.10;;;4.72;;
72358;SDS011;60317;48.880;-0.862;2023-05-29T08:35:11;12.23;;;4.40;;
72358;SDS011;60317;48.880;-0.862;2023-05-29T08:37:39;12.88;;;4.68;;
72358;SDS011;60317;48.880;-0.862;2023-05-29T08:40:06;10.30;;;3.95;;
72358;SDS011;60317;48.880;-0.862;2023-05-29T08:42:33;13.52;;;4.07;;
72358;SDS011;60317;48.880;-0.862;2023-05-29T08:45:03;11.50;;;4.30;;
72358;SDS011;60317;48.880;-0.862;2023-05-29T08:47:31;11.23;;;4.88;;
72358;SDS011;60317;48.880;-0.862;2023-05-29T08:50:00;15.32;;;4.55;;
72358;SDS011;60317;48.880;-0.862;2023-05-29T08:52:28;11.43;;;4.00;;
72358;SDS011;60317;48.880;-0.862;2023-05-29T08:55:00;14.38;;;4.10;;
72358;SDS011;60317;48.880;-0.862;2023-05-29T08:57:27;13.82;;;5.00;;
72358;SDS011;60317;48.880;-0.862;2023-05-29T08:59:55;16.30;;;4.85;;
72358;SDS011;60317;48.880;-0.862;2023-05-29T09:02:22;13.38;;;4.75;;
72358;SDS011;60317;48.880;-0.862;2023-05-29T09:04:48;14.98;;;4.53;;
72358;SDS011;60317;48.880;-0.862;2023-05-29T09:07:15;14.30;;;4.35;;
72358;SDS011;60317;48.880;-0.862;2023-05-29T09:09:42;15.52;;;4.20;;
72358;SDS011;60317;48.880;-0.862;2023-05-29T09:12:10;12.00;;;4.03;;
72358;SDS011;60317;48.880;-0.862;2023-05-29T09:14:37;10.63;;;3.92;;
72358;SDS011;60317;48.880;-0.862;2023-05-29T09:17:04;12.10;;;4.25;;
72358;SDS011;60317;48.880;-0.862;2023-05-29T09:19:32;11.05;;;4.05;;
72358;SDS011;60317;48.880;-0.862;2023-05-29T09:22:00;14.02;;;4.57;;
72358;SDS011;60317;48.880;-0.862;2023-05-29T09:24:28;13.40;;;3.97;;
72358;SDS011;60317;48.880;-0.862;2023-05-29T09:26:55;13.13;;;4.72;;
72358;SDS011;60317;48.880;-0.862;2023-05-29T09:29:23;10.50;;;4.00;;
72358;SDS011;60317;48.880;-0.862;2023-05-29T09:31:50;11.10;;;4.57;;
72358;SDS011;60317;48.880;-0.862;2023-05-29T09:34:16;12.20;;;4.10;;
72358;SDS011;60317;48.880;-0.862;2023-05-29T09:36:43;11.55;;;3.85;;
72358;SDS011;60317;48.880;-0.862;2023-05-29T09:39:09;13.93;;;4.30;;
72358;SDS011;60317;48.880;-0.862;2023-05-29T09:44:11;15.20;;;4.68;;
72358;SDS011;60317;48.880;-0.862;2023-05-29T09:46:40;12.00;;;4.10;;
72358;SDS011;60317;48.880;-0.862;2023-05-29T09:49:08;14.82;;;4.53;;
72358;SDS011;60317;48.880;-0.862;2023-05-29T09:51:36;10.90;;;4.50;;
72358;SDS011;60317;48.880;-0.862;2023-05-29T09:54:12;11.90;;;4.20;;
72358;SDS011;60317;48.880;-0.862;2023-05-29T09:56:40;11.10;;;3.63;;
72358;SDS011;60317;48.880;-0.862;2023-05-29T09:59:08;11.77;;;3.83;;
72358;SDS011;60317;48.880;-0.862;2023-05-29T10:01:37;11.95;;;4.38;;
72358;SDS011;60317;48.880;-0.862;2023-05-29T10:04:08;12.18;;;4.30;;
72358;SDS011;60317;48.880;-0.862;2023-05-29T10:06:34;11.38;;;3.80;;
72358;SDS011;60317;48.880;-0.862;2023-05-29T10:09:02;13.27;;;4.40;;
72358;SDS011;60317;48.880;-0.862;2023-05-29T10:11:31;11.20;;;3.88;;
72358;SDS011;60317;48.880;-0.862;2023-05-29T10:14:00;9.45;;;3.97;;
72358;SDS011;60317;48.880;-0.862;2023-05-29T10:16:28;11.27;;;4.18;;
72358;SDS011;60317;48.880;-0.862;2023-05-29T10:18:59;10.90;;;3.40;;
72358;SDS011;60317;48.880;-0.862;2023-05-29T10:21:28;10.68;;;3.85;;
72358;SDS011;60317;48.880;-0.862;2023-05-29T10:23:54;13.48;;;4.22;;
72358;SDS011;60317;48.880;-0.862;2023-05-29T10:26:24;10.25;;;4.05;;
72358;SDS011;60317;48.880;-0.862;2023-05-29T10:28:54;14.70;;;4.20;;
72358;SDS011;60317;48.880;-0.862;2023-05-29T10:31:28;10.70;;;3.97;;
72358;SDS011;60317;48.880;-0.862;2023-05-29T10:34:07;13.77;;;4.32;;
72358;SDS011;60317;48.880;-0.862;2023-05-29T10:36:42;12.73;;;3.60;;
72358;SDS011;60317;48.880;-0.862;2023-05-29T10:39:11;12.75;;;3.92;;
72358;SDS011;60317;48.880;-0.862;2023-05-29T10:41:38;12.90;;;4.43;;
72358;SDS011;60317;48.880;-0.862;2023-05-29T11:11:30;18.98;;;4.90;;
72358;SDS011;60317;48.880;-0.862;2023-05-29T11:13:57;24.27;;;5.32;;
72358;SDS011;60317;48.880;-0.862;2023-05-29T11:16:36;17.73;;;4.28;;
72358;SDS011;60317;48.880;-0.862;2023-05-29T11:19:03;17.20;;;4.38;;
72358;SDS011;60317;48.880;-0.862;2023-05-29T11:21:33;17.02;;;4.20;;
72358;SDS011;60317;48.880;-0.862;2023-05-29T11:24:01;17.92;;;4.45;;
72358;SDS011;60317;48.880;-0.862;2023-05-29T11:26:33;13.95;;;3.92;;
72358;SDS011;60317;48.880;-0.862;2023-05-29T11:29:03;14.02;;;4.13;;
72358;SDS011;60317;48.880;-0.862;2023-05-29T11:31:31;12.25;;;3.83;;
72358;SDS011;60317;48.880;-0.862;2023-05-29T11:33:59;15.35;;;3.95;;
72358;SDS011;60317;48.880;-0.862;2023-05-29T11:36:27;12.93;;;4.00;;
72358;SDS011;60317;48.880;-0.862;2023-05-29T11:38:54;15.38;;;3.60;;
72358;SDS011;60317;48.880;-0.862;2023-05-29T11:41:20;13.32;;;4.70;;
72358;SDS011;60317;48.880;-0.862;2023-05-29T11:43:57;16.17;;;3.63;;
72358;SDS011;60317;48.880;-0.862;2023-05-29T11:46:24;14.82;;;3.60;;
72358;SDS011;60317;48.880;-0.862;2023-05-29T11:48:51;11.93;;;3.67;;
72358;SDS011;60317;48.880;-0.862;2023-05-29T11:51:17;8.68;;;3.08;;
72358;SDS011;60317;48.880;-0.862;2023-05-29T11:53:46;10.88;;;3.72;;
72358;SDS011;60317;48.880;-0.862;2023-05-29T11:56:13;20.00;;;4.45;;
72358;SDS011;60317;48.880;-0.862;2023-05-29T11:58:40;10.85;;;3.75;;
72358;SDS011;60317;48.880;-0.862;2023-05-29T12:01:08;11.77;;;3.50;;
72358;SDS011;60317;48.880;-0.862;2023-05-29T12:03:37;11.90;;;3.33;;
72358;SDS011;60317;48.880;-0.862;2023-05-29T12:06:04;9.57;;;3.13;;
72358;SDS011;60317;48.880;-0.862;2023-05-29T12:08:31;10.95;;;3.42;;
72358;SDS011;60317;48.880;-0.862;2023-05-29T12:11:01;12.20;;;3.50;;
72358;SDS011;60317;48.880;-0.862;2023-05-29T12:13:27;12.25;;;3.90;;
72358;SDS011;60317;48.880;-0.862;2023-05-29T12:15:54;9.98;;;3.58;;
72358;SDS011;60317;48.880;-0.862;2023-05-29T12:18:25;9.68;;;3.55;;
72358;SDS011;60317;48.880;-0.862;2023-05-29T12:20:56;11.50;;;3.70;;
72358;SDS011;60317;48.880;-0.862;2023-05-29T12:23:23;11.13;;;3.28;;
72358;SDS011;60317;48.880;-0.862;2023-05-29T12:25:50;14.63;;;3.92;;
72358;SDS011;60317;48.880;-0.862;2023-05-29T12:28:18;11.52;;;4.22;;
72358;SDS011;60317;48.880;-0.862;2023-05-29T12:30:46;10.27;;;3.75;;
72358;SDS011;60317;48.880;-0.862;2023-05-29T12:33:25;12.05;;;3.50;;
72358;SDS011;60317;48.880;-0.862;2023-05-29T12:35:53;7.22;;;2.70;;
72358;SDS011;60317;48.880;-0.862;2023-05-29T12:38:20;10.88;;;3.78;;
72358;SDS011;60317;48.880;-0.862;2023-05-29T12:40:48;13.07;;;4.03;;
72358;SDS011;60317;48.880;-0.862;2023-05-29T12:43:15;11.00;;;3.95;;
72358;SDS011;60317;48.880;-0.862;2023-05-29T12:45:42;11.85;;;3.33;;
72358;SDS011;60317;48.880;-0.862;2023-05-29T12:48:09;9.48;;;3.30;;
72358;SDS011;60317;48.880;-0.862;2023-05-29T12:50:37;17.30;;;3.78;;
72358;SDS011;60317;48.880;-0.862;2023-05-29T12:53:05;10.68;;;3.40;;
72358;SDS011;60317;48.880;-0.862;2023-05-29T12:55:33;12.25;;;3.58;;
72358;SDS011;60317;48.880;-0.862;2023-05-29T12:58:02;12.80;;;3.35;;
72358;SDS011;60317;48.880;-0.862;2023-05-29T13:00:29;12.15;;;3.58;;
72358;SDS011;60317;48.880;-0.862;2023-05-29T13:02:55;9.73;;;3.58;;
72358;SDS011;60317;48.880;-0.862;2023-05-29T13:05:22;9.18;;;3.45;;
72358;SDS011;60317;48.880;-0.862;2023-05-29T13:07:51;11.98;;;3.47;;
72358;SDS011;60317;48.880;-0.862;2023-05-29T13:10:17;12.82;;;3.45;;
72358;SDS011;60317;48.880;-0.862;2023-05-29T13:12:44;15.45;;;4.00;;
72358;SDS011;60317;48.880;-0.862;2023-05-29T13:15:12;14.88;;;3.67;;
72358;SDS011;60317;48.880;-0.862;2023-05-29T13:17:40;13.82;;;3.90;;
72358;SDS011;60317;48.880;-0.862;2023-05-29T13:20:08;10.05;;;3.15;;
72358;SDS011;60317;48.880;-0.862;2023-05-29T13:22:36;9.15;;;3.50;;
72358;SDS011;60317;48.880;-0.862;2023-05-29T13:25:04;14.70;;;4.07;;
72358;SDS011;60317;48.880;-0.862;2023-05-29T13:27:31;12.85;;;3.47;;
72358;SDS011;60317;48.880;-0.862;2023-05-29T13:29:57;11.50;;;3.70;;
72358;SDS011;60317;48.880;-0.862;2023-05-29T13:32:24;11.25;;;3.90;;
72358;SDS011;60317;48.880;-0.862;2023-05-29T13:34:51;12.90;;;3.97;;
72358;SDS011;60317;48.880;-0.862;2023-05-29T13:37:17;11.27;;;3.55;;
72358;SDS011;60317;48.880;-0.862;2023-05-29T13:39:43;17.77;;;4.30;;
72358;SDS011;60317;48.880;-0.862;2023-05-29T13:42:11;10.80;;;3.30;;
72358;SDS011;60317;48.880;-0.862;2023-05-29T13:44:38;15.90;;;4.32;;
72358;SDS011;60317;48.880;-0.862;2023-05-29T13:47:05;17.05;;;4.07;;
72358;SDS011;60317;48.880;-0.862;2023-05-29T13:49:32;13.85;;;3.40;;
72358;SDS011;60317;48.880;-0.862;2023-05-29T13:51:59;15.95;;;4.05;;
72358;SDS011;60317;48.880;-0.862;2023-05-29T13:54:25;14.30;;;4.00;;
72358;SDS011;60317;48.880;-0.862;2023-05-29T13:56:52;12.75;;;3.55;;
72358;SDS011;60317;48.880;-0.862;2023-05-29T13:59:20;13.73;;;3.60;;
72358;SDS011;60317;48.880;-0.862;2023-05-29T14:01:46;18.80;;;4.25;;
72358;SDS011;60317;48.880;-0.862;2023-05-29T14:04:13;14.05;;;3.67;;
72358;SDS011;60317;48.880;-0.862;2023-05-29T14:06:39;16.05;;;4.90;;
72358;SDS011;60317;48.880;-0.862;2023-05-29T14:09:06;13.07;;;3.60;;
72358;SDS011;60317;48.880;-0.862;2023-05-29T14:11:32;16.30;;;3.83;;
72358;SDS011;60317;48.880;-0.862;2023-05-29T14:13:59;12.70;;;3.70;;
72358;SDS011;60317;48.880;-0.862;2023-05-29T14:16:27;12.35;;;3.40;;
72358;SDS011;60317;48.880;-0.862;2023-05-29T14:18:53;18.38;;;4.30;;
72358;SDS011;60317;48.880;-0.862;2023-05-29T14:21:20;15.43;;;4.32;;
72358;SDS011;60317;48.880;-0.862;2023-05-29T14:23:47;10.23;;;3.30;;
72358;SDS011;60317;48.880;-0.862;2023-05-29T14:26:13;12.70;;;3.88;;
72358;SDS011;60317;48.880;-0.862;2023-05-29T14:28:40;13.40;;;3.58;;
72358;SDS011;60317;48.880;-0.862;2023-05-29T14:31:06;17.88;;;4.18;;
72358;SDS011;60317;48.880;-0.862;2023-05-29T14:33:34;15.75;;;3.70;;
72358;SDS011;60317;48.880;-0.862;2023-05-29T14:36:01;11.90;;;3.67;;
72358;SDS011;60317;48.880;-0.862;2023-05-29T14:38:27;16.35;;;4.00;;
72358;SDS011;60317;48.880;-0.862;2023-05-29T14:40:54;18.17;;;3.72;;
72358;SDS011;60317;48.880;-0.862;2023-05-29T14:43:34;14.43;;;3.88;;
72358;SDS011;60317;48.880;-0.862;2023-05-29T14:46:00;16.65;;;4.00;;
72358;SDS011;60317;48.880;-0.862;2023-05-29T14:48:27;15.32;;;4.07;;
72358;SDS011;60317;48.880;-0.862;2023-05-29T14:50:55;11.10;;;3.40;;
72358;SDS011;60317;48.880;-0.862;2023-05-29T14:53:21;16.85;;;3.45;;
72358;SDS011;60317;48.880;-0.862;2023-05-29T14:55:48;16.05;;;3.92;;